sensor_id;sensor_type;location;lat;lon;timestamp;P1;durP1;ratioP1;P2;durP2;ratioP2
52542;SDS011;38449;52.696;6.186;2023-06-24T00:00:36;9.85;;;7.88;;
52542;SDS011;38449;52.696;6.186;2023-06-24T00:03:02;9.77;;;7.80;;
52542;SDS011;38449;52.696;6.186;2023-06-24T00:05:32;9.43;;;7.55;;
52542;SDS011;38449;52.696;6.186;2023-06-24T00:07:59;8.30;;;7.45;;
52542;SDS011;38449;52.696;6.186;2023-06-24T00:10:27;8.27;;;6.93;;
52542;SDS011;38449;52.696;6.186;2023-06-24T00:12:55;9.15;;;7.80;;
52542;SDS011;38449;52.696;6.186;2023-06-24T00:15:21;8.25;;;7.03;;
52542;SDS011;38449;52.696;6.186;2023-06-24T00:17:47;10.68;;;7.85;;
52542;SDS011;38449;52.696;6.186;2023-06-24T00:20:15;9.40;;;8.02;;
52542;SDS011;38449;52.696;6.186;2023-06-24T00:22:44;10.10;;;8.65;;
52542;SDS011;38449;52.696;6.186;2023-06-24T00:25:14;9.88;;;8.43;;
52542;SDS011;38449;52.696;6.186;2023-06-24T00:27:43;9.50;;;8.35;;
52542;SDS011;38449;52.696;6.186;2023-06-24T00:30:11;11.13;;;8.60;;
52542;SDS011;38449;52.696;6.186;2023-06-24T00:32:38;9.98;;;8.25;;
52542;SDS011;38449;52.696;6.186;2023-06-24T00:35:04;9.35;;;7.00;;
52542;SDS011;38449;52.696;6.186;2023-06-24T00:37:31;10.60;;;7.75;;
52542;SDS011;38449;52.696;6.186;2023-06-24T00:39:57;11.60;;;8.60;;
52542;SDS011;38449;52.696;6.186;2023-06-24T00:42:23;9.52;;;7.97;;
52542;SDS011;38449;52.696;6.186;2023-06-24T00:44:53;10.75;;;8.25;;
52542;SDS011;38449;52.696;6.186;2023-06-24T00:47:19;10.32;;;7.75;;
52542;SDS011;38449;52.696;6.186;2023-06-24T00:49:45;9.05;;;7.50;;
52542;SDS011;38449;52.696;6.186;2023-06-24T00:52:12;9.10;;;7.47;;
52542;SDS011;38449;52.696;6.186;2023-06-24T00:54:44;10.30;;;8.05;;
52542;SDS011;38449;52.696;6.186;2023-06-24T00:57:10;10.60;;;7.78;;
52542;SDS011;38449;52.696;6.186;2023-06-24T00:59:37;9.88;;;8.35;;
52542;SDS011;38449;52.696;6.186;2023-06-24T01:02:05;10.88;;;8.85;;
52542;SDS011;38449;52.696;6.186;2023-06-24T01:04:32;12.27;;;7.90;;
52542;SDS011;38449;52.696;6.186;2023-06-24T01:06:59;10.07;;;9.05;;
52542;SDS011;38449;52.696;6.186;2023-06-24T01:09:27;10.45;;;9.13;;
52542;SDS011;38449;52.696;6.186;2023-06-24T01:11:53;10.75;;;8.98;;
52542;SDS011;38449;52.696;6.186;2023-06-24T01:14:21;10.82;;;8.90;;
52542;SDS011;38449;52.696;6.186;2023-06-24T01:17:09;14.15;;;10.40;;
52542;SDS011;38449;52.696;6.186;2023-06-24T01:19:58;12.02;;;10.27;;
52542;SDS011;38449;52.696;6.186;2023-06-24T01:25:39;12.82;;;10.23;;
52542;SDS011;38449;52.696;6.186;2023-06-24T01:31:18;11.48;;;10.30;;
52542;SDS011;38449;52.696;6.186;2023-06-24T01:37:17;12.68;;;10.13;;
52542;SDS011;38449;52.696;6.186;2023-06-24T01:40:46;13.13;;;10.45;;
52542;SDS011;38449;52.696;6.186;2023-06-24T01:42:53;13.85;;;11.38;;
52542;SDS011;38449;52.696;6.186;2023-06-24T01:45:23;15.18;;;11.85;;
52542;SDS011;38449;52.696;6.186;2023-06-24T01:48:00;12.55;;;10.95;;
52542;SDS011;38449;52.696;6.186;2023-06-24T01:50:31;14.10;;;11.35;;
52542;SDS011;38449;52.696;6.186;2023-06-24T01:53:03;13.27;;;10.80;;
52542;SDS011;38449;52.696;6.186;2023-06-24T01:55:34;11.93;;;10.63;;
52542;SDS011;38449;52.696;6.186;2023-06-24T01:58:04;12.90;;;10.82;;
52542;SDS011;38449;52.696;6.186;2023-06-24T02:00:33;12.00;;;10.13;;
52542;SDS011;38449;52.696;6.186;2023-06-24T02:03:00;14.90;;;12.10;;
52542;SDS011;38449;52.696;6.186;2023-06-24T02:05:28;13.82;;;11.30;;
52542;SDS011;38449;52.696;6.186;2023-06-24T02:07:57;14.73;;;10.18;;
52542;SDS011;38449;52.696;6.186;2023-06-24T02:10:25;15.45;;;10.82;;
52542;SDS011;38449;52.696;6.186;2023-06-24T02:12:54;13.05;;;11.38;;
52542;SDS011;38449;52.696;6.186;2023-06-24T02:15:21;12.93;;;11.20;;
52542;SDS011;38449;52.696;6.186;2023-06-24T02:17:50;14.27;;;11.30;;
52542;SDS011;38449;52.696;6.186;2023-06-24T02:20:17;13.77;;;10.73;;
52542;SDS011;38449;52.696;6.186;2023-06-24T02:22:49;13.15;;;10.48;;
52542;SDS011;38449;52.696;6.186;2023-06-24T02:25:23;16.35;;;11.75;;
52542;SDS011;38449;52.696;6.186;2023-06-24T02:27:52;16.13;;;12.13;;
52542;SDS011;38449;52.696;6.186;2023-06-24T02:30:19;15.73;;;12.35;;
52542;SDS011;38449;52.696;6.186;2023-06-24T02:32:52;15.93;;;11.43;;
52542;SDS011;38449;52.696;6.186;2023-06-24T02:35:20;13.80;;;12.30;;
52542;SDS011;38449;52.696;6.186;2023-06-24T02:37:46;15.50;;;11.35;;
52542;SDS011;38449;52.696;6.186;2023-06-24T02:40:12;15.20;;;12.32;;
52542;SDS011;38449;52.696;6.186;2023-06-24T02:42:39;14.98;;;12.68;;
52542;SDS011;38449;52.696;6.186;2023-06-24T02:45:05;15.35;;;12.95;;
52542;SDS011;38449;52.696;6.186;2023-06-24T02:47:33;14.15;;;10.73;;
52542;SDS011;38449;52.696;6.186;2023-06-24T02:50:02;14.13;;;12.63;;
52542;SDS011;38449;52.696;6.186;2023-06-24T02:52:29;15.82;;;11.90;;
52542;SDS011;38449;52.696;6.186;2023-06-24T02:54:57;15.18;;;12.95;;
52542;SDS011;38449;52.696;6.186;2023-06-24T02:57:25;17.42;;;13.57;;
52542;SDS011;38449;52.696;6.186;2023-06-24T02:59:51;17.30;;;11.70;;
52542;SDS011;38449;52.696;6.186;2023-06-24T03:02:18;14.88;;;11.70;;
52542;SDS011;38449;52.696;6.186;2023-06-24T03:04:48;15.90;;;12.25;;
52542;SDS011;38449;52.696;6.186;2023-06-24T03:07:15;14.75;;;12.48;;
52542;SDS011;38449;52.696;6.186;2023-06-24T03:09:46;16.15;;;12.95;;
52542;SDS011;38449;52.696;6.186;2023-06-24T03:12:13;15.23;;;13.20;;
52542;SDS011;38449;52.696;6.186;2023-06-24T03:14:40;14.85;;;12.38;;
52542;SDS011;38449;52.696;6.186;2023-06-24T03:17:08;16.63;;;12.32;;
52542;SDS011;38449;52.696;6.186;2023-06-24T03:19:35;15.70;;;11.73;;
52542;SDS011;38449;52.696;6.186;2023-06-24T03:22:01;17.77;;;13.15;;
52542;SDS011;38449;52.696;6.186;2023-06-24T03:24:29;16.45;;;12.77;;
52542;SDS011;38449;52.696;6.186;2023-06-24T03:26:58;16.55;;;13.10;;
52542;SDS011;38449;52.696;6.186;2023-06-24T03:29:25;13.52;;;12.02;;
52542;SDS011;38449;52.696;6.186;2023-06-24T03:31:51;15.13;;;12.13;;
52542;SDS011;38449;52.696;6.186;2023-06-24T03:34:17;18.15;;;12.25;;
52542;SDS011;38449;52.696;6.186;2023-06-24T03:36:43;14.80;;;12.60;;
52542;SDS011;38449;52.696;6.186;2023-06-24T03:39:14;15.75;;;11.52;;
52542;SDS011;38449;52.696;6.186;2023-06-24T03:41:42;16.05;;;13.05;;
52542;SDS011;38449;52.696;6.186;2023-06-24T03:44:08;16.40;;;13.07;;
52542;SDS011;38449;52.696;6.186;2023-06-24T03:46:34;15.18;;;11.68;;
52542;SDS011;38449;52.696;6.186;2023-06-24T03:49:00;15.65;;;12.65;;
52542;SDS011;38449;52.696;6.186;2023-06-24T03:51:27;16.20;;;13.43;;
52542;SDS011;38449;52.696;6.186;2023-06-24T03:53:53;15.90;;;13.23;;
52542;SDS011;38449;52.696;6.186;2023-06-24T03:56:19;14.98;;;13.38;;
52542;SDS011;38449;52.696;6.186;2023-06-24T03:58:46;15.57;;;12.75;;
52542;SDS011;38449;52.696;6.186;2023-06-24T04:01:12;17.38;;;13.80;;
52542;SDS011;38449;52.696;6.186;2023-06-24T04:03:40;17.02;;;12.98;;
52542;SDS011;38449;52.696;6.186;2023-06-24T04:06:06;16.00;;;12.13;;
52542;SDS011;38449;52.696;6.186;2023-06-24T04:08:32;15.48;;;13.38;;
52542;SDS011;38449;52.696;6.186;2023-06-24T04:10:58;16.17;;;12.63;;
52542;SDS011;38449;52.696;6.186;2023-06-24T04:13:32;14.27;;;12.57;;
52542;SDS011;38449;52.696;6.186;2023-06-24T04:16:01;14.63;;;11.98;;
52542;SDS011;38449;52.696;6.186;2023-06-24T04:18:27;16.23;;;13.48;;
52542;SDS011;38449;52.696;6.186;2023-06-24T04:20:53;16.40;;;13.30;;
52542;SDS011;38449;52.696;6.186;2023-06-24T04:23:24;17.52;;;13.65;;
52542;SDS011;38449;52.696;6.186;2023-06-24T04:25:53;18.13;;;13.82;;
52542;SDS011;38449;52.696;6.186;2023-06-24T04:28:20;17.08;;;13.55;;
52542;SDS011;38449;52.696;6.186;2023-06-24T04:30:47;15.55;;;13.25;;
52542;SDS011;38449;52.696;6.186;2023-06-24T04:33:14;15.82;;;12.35;;
52542;SDS011;38449;52.696;6.186;2023-06-24T04:35:42;15.00;;;12.85;;
52542;SDS011;38449;52.696;6.186;2023-06-24T04:38:10;16.65;;;12.68;;
52542;SDS011;38449;52.696;6.186;2023-06-24T04:40:37;18.15;;;13.63;;
52542;SDS011;38449;52.696;6.186;2023-06-24T04:43:03;17.33;;;13.93;;
52542;SDS011;38449;52.696;6.186;2023-06-24T04:45:30;15.73;;;13.30;;
52542;SDS011;38449;52.696;6.186;2023-06-24T04:47:56;16.55;;;13.48;;
52542;SDS011;38449;52.696;6.186;2023-06-24T04:50:22;14.98;;;12.02;;
52542;SDS011;38449;52.696;6.186;2023-06-24T04:52:52;14.68;;;11.43;;
52542;SDS011;38449;52.696;6.186;2023-06-24T04:55:21;17.33;;;12.23;;
52542;SDS011;38449;52.696;6.186;2023-06-24T04:57:50;15.60;;;13.02;;
52542;SDS011;38449;52.696;6.186;2023-06-24T05:00:20;16.98;;;13.63;;
52542;SDS011;38449;52.696;6.186;2023-06-24T05:02:48;17.30;;;12.35;;
52542;SDS011;38449;52.696;6.186;2023-06-24T05:05:15;14.18;;;12.32;;
52542;SDS011;38449;52.696;6.186;2023-06-24T05:07:41;13.80;;;12.35;;
52542;SDS011;38449;52.696;6.186;2023-06-24T05:10:07;16.48;;;13.13;;
52542;SDS011;38449;52.696;6.186;2023-06-24T05:12:33;15.20;;;13.23;;
52542;SDS011;38449;52.696;6.186;2023-06-24T05:15:00;14.55;;;12.90;;
52542;SDS011;38449;52.696;6.186;2023-06-24T05:17:26;14.73;;;12.32;;
52542;SDS011;38449;52.696;6.186;2023-06-24T05:19:52;14.60;;;12.27;;
52542;SDS011;38449;52.696;6.186;2023-06-24T05:22:18;14.40;;;12.73;;
52542;SDS011;38449;52.696;6.186;2023-06-24T05:24:45;14.07;;;12.57;;
52542;SDS011;38449;52.696;6.186;2023-06-24T05:27:12;14.68;;;13.13;;
52542;SDS011;38449;52.696;6.186;2023-06-24T05:29:38;15.93;;;12.85;;
52542;SDS011;38449;52.696;6.186;2023-06-24T05:32:06;13.60;;;11.20;;
52542;SDS011;38449;52.696;6.186;2023-06-24T05:34:32;15.05;;;13.45;;
52542;SDS011;38449;52.696;6.186;2023-06-24T05:37:00;13.95;;;12.45;;
52542;SDS011;38449;52.696;6.186;2023-06-24T05:39:28;14.77;;;13.27;;
52542;SDS011;38449;52.696;6.186;2023-06-24T05:41:55;15.27;;;13.48;;
52542;SDS011;38449;52.696;6.186;2023-06-24T05:44:21;16.13;;;13.63;;
52542;SDS011;38449;52.696;6.186;2023-06-24T05:46:49;13.60;;;12.27;;
52542;SDS011;38449;52.696;6.186;2023-06-24T05:49:15;14.02;;;12.63;;
52542;SDS011;38449;52.696;6.186;2023-06-24T05:51:41;15.85;;;13.43;;
52542;SDS011;38449;52.696;6.186;2023-06-24T05:54:11;13.88;;;12.43;;
52542;SDS011;38449;52.696;6.186;2023-06-24T05:56:37;14.55;;;12.82;;
52542;SDS011;38449;52.696;6.186;2023-06-24T05:59:05;14.18;;;12.32;;
52542;SDS011;38449;52.696;6.186;2023-06-24T06:01:31;14.13;;;12.25;;
52542;SDS011;38449;52.696;6.186;2023-06-24T06:04:03;12.15;;;10.93;;
52542;SDS011;38449;52.696;6.186;2023-06-24T06:06:29;13.90;;;12.50;;
52542;SDS011;38449;52.696;6.186;2023-06-24T06:08:56;14.88;;;12.43;;
52542;SDS011;38449;52.696;6.186;2023-06-24T06:11:27;14.65;;;11.40;;
52542;SDS011;38449;52.696;6.186;2023-06-24T06:13:53;14.25;;;12.13;;
52542;SDS011;38449;52.696;6.186;2023-06-24T06:16:19;16.85;;;12.55;;
52542;SDS011;38449;52.696;6.186;2023-06-24T06:18:46;14.20;;;11.38;;
52542;SDS011;38449;52.696;6.186;2023-06-24T06:21:13;13.45;;;12.05;;
52542;SDS011;38449;52.696;6.186;2023-06-24T06:23:41;13.93;;;12.48;;
52542;SDS011;38449;52.696;6.186;2023-06-24T06:26:07;13.95;;;11.98;;
52542;SDS011;38449;52.696;6.186;2023-06-24T06:28:34;13.57;;;10.98;;
52542;SDS011;38449;52.696;6.186;2023-06-24T06:31:01;12.75;;;11.43;;
52542;SDS011;38449;52.696;6.186;2023-06-24T06:33:27;12.27;;;11.15;;
52542;SDS011;38449;52.696;6.186;2023-06-24T06:35:53;12.52;;;11.13;;
52542;SDS011;38449;52.696;6.186;2023-06-24T06:38:19;13.40;;;11.45;;
52542;SDS011;38449;52.696;6.186;2023-06-24T06:40:49;12.88;;;11.48;;
52542;SDS011;38449;52.696;6.186;2023-06-24T06:43:15;15.02;;;12.40;;
52542;SDS011;38449;52.696;6.186;2023-06-24T06:45:41;12.77;;;11.15;;
52542;SDS011;38449;52.696;6.186;2023-06-24T06:48:10;13.23;;;11.27;;
52542;SDS011;38449;52.696;6.186;2023-06-24T06:50:40;12.60;;;11.13;;
52542;SDS011;38449;52.696;6.186;2023-06-24T06:53:06;11.18;;;10.02;;
52542;SDS011;38449;52.696;6.186;2023-06-24T06:55:32;12.10;;;10.45;;
52542;SDS011;38449;52.696;6.186;2023-06-24T06:58:01;9.80;;;8.50;;
52542;SDS011;38449;52.696;6.186;2023-06-24T07:00:29;10.38;;;9.27;;
52542;SDS011;38449;52.696;6.186;2023-06-24T07:02:55;9.73;;;8.68;;
52542;SDS011;38449;52.696;6.186;2023-06-24T07:08:20;8.73;;;7.60;;
52542;SDS011;38449;52.696;6.186;2023-06-24T07:10:49;8.40;;;7.50;;
52542;SDS011;38449;52.696;6.186;2023-06-24T07:13:23;8.85;;;6.65;;
52542;SDS011;38449;52.696;6.186;2023-06-24T07:15:49;8.45;;;7.60;;
52542;SDS011;38449;52.696;6.186;2023-06-24T07:18:15;8.57;;;7.65;;
52542;SDS011;38449;52.696;6.186;2023-06-24T07:20:41;11.00;;;7.63;;
52542;SDS011;38449;52.696;6.186;2023-06-24T07:23:09;10.80;;;7.32;;
52542;SDS011;38449;52.696;6.186;2023-06-24T07:25:38;9.10;;;7.70;;
52542;SDS011;38449;52.696;6.186;2023-06-24T07:28:04;9.23;;;8.15;;
52542;SDS011;38449;52.696;6.186;2023-06-24T07:30:30;9.77;;;7.43;;
52542;SDS011;38449;52.696;6.186;2023-06-24T07:32:57;10.75;;;7.82;;
52542;SDS011;38449;52.696;6.186;2023-06-24T07:35:23;10.48;;;7.82;;
52542;SDS011;38449;52.696;6.186;2023-06-24T07:37:52;12.05;;;8.45;;
52542;SDS011;38449;52.696;6.186;2023-06-24T07:40:18;8.45;;;7.65;;
52542;SDS011;38449;52.696;6.186;2023-06-24T07:42:45;8.70;;;7.60;;
52542;SDS011;38449;52.696;6.186;2023-06-24T07:45:11;10.35;;;8.32;;
52542;SDS011;38449;52.696;6.186;2023-06-24T07:47:37;10.40;;;8.77;;
52542;SDS011;38449;52.696;6.186;2023-06-24T07:50:03;10.00;;;8.38;;
52542;SDS011;38449;52.696;6.186;2023-06-24T07:52:32;12.00;;;8.63;;
52542;SDS011;38449;52.696;6.186;2023-06-24T07:54:58;9.57;;;7.65;;
52542;SDS011;38449;52.696;6.186;2023-06-24T07:57:26;9.65;;;7.45;;
52542;SDS011;38449;52.696;6.186;2023-06-24T07:59:52;11.15;;;8.48;;
52542;SDS011;38449;52.696;6.186;2023-06-24T08:02:20;10.82;;;8.43;;
52542;SDS011;38449;52.696;6.186;2023-06-24T08:04:46;9.57;;;7.72;;
52542;SDS011;38449;52.696;6.186;2023-06-24T08:07:16;9.57;;;7.93;;
52542;SDS011;38449;52.696;6.186;2023-06-24T08:09:45;9.13;;;7.43;;
52542;SDS011;38449;52.696;6.186;2023-06-24T08:12:12;8.48;;;7.22;;
52542;SDS011;38449;52.696;6.186;2023-06-24T08:14:39;7.93;;;7.13;;
52542;SDS011;38449;52.696;6.186;2023-06-24T08:17:05;8.70;;;6.70;;
52542;SDS011;38449;52.696;6.186;2023-06-24T08:19:33;8.60;;;6.90;;
52542;SDS011;38449;52.696;6.186;2023-06-24T08:22:00;7.88;;;7.07;;
52542;SDS011;38449;52.696;6.186;2023-06-24T08:24:26;8.05;;;6.85;;
52542;SDS011;38449;52.696;6.186;2023-06-24T08:26:52;7.93;;;6.20;;
52542;SDS011;38449;52.696;6.186;2023-06-24T08:29:21;10.10;;;6.75;;
52542;SDS011;38449;52.696;6.186;2023-06-24T08:31:47;7.85;;;6.60;;
52542;SDS011;38449;52.696;6.186;2023-06-24T08:34:13;7.72;;;6.68;;
52542;SDS011;38449;52.696;6.186;2023-06-24T08:36:39;7.35;;;6.07;;
52542;SDS011;38449;52.696;6.186;2023-06-24T08:39:07;8.63;;;6.18;;
52542;SDS011;38449;52.696;6.186;2023-06-24T08:41:33;8.32;;;6.00;;
52542;SDS011;38449;52.696;6.186;2023-06-24T08:44:00;6.20;;;4.72;;
52542;SDS011;38449;52.696;6.186;2023-06-24T08:46:26;7.32;;;5.00;;
52542;SDS011;38449;52.696;6.186;2023-06-24T08:48:54;5.82;;;4.93;;
52542;SDS011;38449;52.696;6.186;2023-06-24T08:51:43;5.50;;;4.60;;
52542;SDS011;38449;52.696;6.186;2023-06-24T08:54:13;6.07;;;4.63;;
52542;SDS011;38449;52.696;6.186;2023-06-24T08:56:41;7.60;;;4.72;;
52542;SDS011;38449;52.696;6.186;2023-06-24T08:59:09;5.05;;;4.50;;
52542;SDS011;38449;52.696;6.186;2023-06-24T09:01:35;6.78;;;4.80;;
52542;SDS011;38449;52.696;6.186;2023-06-24T09:04:05;6.22;;;5.30;;
52542;SDS011;38449;52.696;6.186;2023-06-24T09:06:33;7.10;;;5.95;;
52542;SDS011;38449;52.696;6.186;2023-06-24T09:09:03;6.75;;;5.82;;
52542;SDS011;38449;52.696;6.186;2023-06-24T09:11:30;8.82;;;5.13;;
52542;SDS011;38449;52.696;6.186;2023-06-24T09:14:01;9.23;;;5.72;;
52542;SDS011;38449;52.696;6.186;2023-06-24T09:16:27;8.13;;;5.10;;
52542;SDS011;38449;52.696;6.186;2023-06-24T09:18:55;5.50;;;4.88;;
52542;SDS011;38449;52.696;6.186;2023-06-24T09:21:25;6.55;;;5.28;;
52542;SDS011;38449;52.696;6.186;2023-06-24T09:23:53;7.22;;;5.60;;
52542;SDS011;38449;52.696;6.186;2023-06-24T09:26:24;7.43;;;6.22;;
52542;SDS011;38449;52.696;6.186;2023-06-24T09:28:51;8.93;;;6.43;;
52542;SDS011;38449;52.696;6.186;2023-06-24T09:31:18;8.82;;;5.82;;
52542;SDS011;38449;52.696;6.186;2023-06-24T09:33:45;9.25;;;6.72;;
52542;SDS011;38449;52.696;6.186;2023-06-24T09:36:14;8.35;;;6.25;;
52542;SDS011;38449;52.696;6.186;2023-06-24T09:38:41;9.35;;;6.13;;
52542;SDS011;38449;52.696;6.186;2023-06-24T09:41:10;7.32;;;6.35;;
52542;SDS011;38449;52.696;6.186;2023-06-24T09:43:41;8.27;;;5.88;;
52542;SDS011;38449;52.696;6.186;2023-06-24T09:46:10;6.57;;;5.22;;
52542;SDS011;38449;52.696;6.186;2023-06-24T09:48:37;8.32;;;5.50;;
52542;SDS011;38449;52.696;6.186;2023-06-24T09:51:05;9.07;;;6.72;;
52542;SDS011;38449;52.696;6.186;2023-06-24T09:53:34;7.20;;;6.05;;
52542;SDS011;38449;52.696;6.186;2023-06-24T09:56:02;7.38;;;6.07;;
52542;SDS011;38449;52.696;6.186;2023-06-24T09:58:31;10.73;;;6.90;;
52542;SDS011;38449;52.696;6.186;2023-06-24T10:01:02;8.20;;;6.47;;
52542;SDS011;38449;52.696;6.186;2023-06-24T10:03:36;7.72;;;6.47;;
52542;SDS011;38449;52.696;6.186;2023-06-24T10:06:04;7.78;;;6.53;;
52542;SDS011;38449;52.696;6.186;2023-06-24T10:08:32;9.07;;;6.90;;
52542;SDS011;38449;52.696;6.186;2023-06-24T10:10:59;9.35;;;7.05;;
52542;SDS011;38449;52.696;6.186;2023-06-24T10:13:28;8.48;;;7.43;;
52542;SDS011;38449;52.696;6.186;2023-06-24T10:15:55;9.38;;;8.02;;
52542;SDS011;38449;52.696;6.186;2023-06-24T10:18:35;9.10;;;6.88;;
52542;SDS011;38449;52.696;6.186;2023-06-24T10:21:07;8.13;;;6.10;;
52542;SDS011;38449;52.696;6.186;2023-06-24T10:23:40;7.85;;;6.88;;
52542;SDS011;38449;52.696;6.186;2023-06-24T10:26:24;10.07;;;6.60;;
52542;SDS011;38449;52.696;6.186;2023-06-24T10:37:01;6.22;;;5.32;;
52542;SDS011;38449;52.696;6.186;2023-06-24T10:42:36;9.10;;;6.07;;
52542;SDS011;38449;52.696;6.186;2023-06-24T10:47:41;7.43;;;5.93;;
52542;SDS011;38449;52.696;6.186;2023-06-24T10:50:10;8.02;;;6.47;;
52542;SDS011;38449;52.696;6.186;2023-06-24T10:52:38;7.45;;;6.60;;
52542;SDS011;38449;52.696;6.186;2023-06-24T10:55:06;7.60;;;6.03;;
52542;SDS011;38449;52.696;6.186;2023-06-24T10:57:33;7.43;;;6.10;;
52542;SDS011;38449;52.696;6.186;2023-06-24T11:00:00;6.93;;;6.00;;
52542;SDS011;38449;52.696;6.186;2023-06-24T11:02:28;8.00;;;5.72;;
52542;SDS011;38449;52.696;6.186;2023-06-24T11:04:59;9.52;;;7.00;;
52542;SDS011;38449;52.696;6.186;2023-06-24T11:07:27;9.80;;;7.70;;
52542;SDS011;38449;52.696;6.186;2023-06-24T11:09:57;8.50;;;7.60;;
52542;SDS011;38449;52.696;6.186;2023-06-24T11:12:42;8.60;;;6.63;;
52542;SDS011;38449;52.696;6.186;2023-06-24T11:15:09;8.55;;;6.80;;
52542;SDS011;38449;52.696;6.186;2023-06-24T11:17:38;7.32;;;6.18;;
52542;SDS011;38449;52.696;6.186;2023-06-24T11:20:12;7.88;;;6.70;;
52542;SDS011;38449;52.696;6.186;2023-06-24T11:22:39;8.35;;;5.55;;
52542;SDS011;38449;52.696;6.186;2023-06-24T11:25:14;7.88;;;6.05;;
52542;SDS011;38449;52.696;6.186;2023-06-24T11:27:50;7.75;;;6.88;;
52542;SDS011;38449;52.696;6.186;2023-06-24T11:30:20;7.68;;;6.35;;
52542;SDS011;38449;52.696;6.186;2023-06-24T11:32:46;7.53;;;6.03;;
52542;SDS011;38449;52.696;6.186;2023-06-24T11:35:16;8.48;;;7.03;;
52542;SDS011;38449;52.696;6.186;2023-06-24T11:37:43;7.00;;;6.25;;
52542;SDS011;38449;52.696;6.186;2023-06-24T11:40:11;7.40;;;5.60;;
52542;SDS011;38449;52.696;6.186;2023-06-24T11:42:44;6.28;;;5.20;;
52542;SDS011;38449;52.696;6.186;2023-06-24T11:45:11;7.70;;;5.68;;
52542;SDS011;38449;52.696;6.186;2023-06-24T11:47:38;8.73;;;6.70;;
52542;SDS011;38449;52.696;6.186;2023-06-24T11:50:06;10.27;;;6.72;;
52542;SDS011;38449;52.696;6.186;2023-06-24T11:58:00;7.43;;;5.50;;
52542;SDS011;38449;52.696;6.186;2023-06-24T12:00:31;8.48;;;5.43;;
52542;SDS011;38449;52.696;6.186;2023-06-24T12:03:01;6.68;;;4.30;;
52542;SDS011;38449;52.696;6.186;2023-06-24T12:05:29;5.97;;;4.72;;
52542;SDS011;38449;52.696;6.186;2023-06-24T12:07:59;6.55;;;5.10;;
52542;SDS011;38449;52.696;6.186;2023-06-24T12:10:27;6.45;;;5.03;;
52542;SDS011;38449;52.696;6.186;2023-06-24T12:12:55;7.13;;;5.53;;
52542;SDS011;38449;52.696;6.186;2023-06-24T12:15:23;7.00;;;5.82;;
52542;SDS011;38449;52.696;6.186;2023-06-24T12:17:50;5.93;;;4.95;;
52542;SDS011;38449;52.696;6.186;2023-06-24T12:20:16;7.57;;;5.53;;
52542;SDS011;38449;52.696;6.186;2023-06-24T12:22:44;9.82;;;5.57;;
52542;SDS011;38449;52.696;6.186;2023-06-24T12:25:16;7.30;;;5.40;;
52542;SDS011;38449;52.696;6.186;2023-06-24T12:27:42;8.38;;;5.05;;
52542;SDS011;38449;52.696;6.186;2023-06-24T12:30:10;8.75;;;4.97;;
52542;SDS011;38449;52.696;6.186;2023-06-24T12:32:37;5.95;;;5.22;;
52542;SDS011;38449;52.696;6.186;2023-06-24T12:35:04;7.03;;;4.55;;
52542;SDS011;38449;52.696;6.186;2023-06-24T12:37:31;7.07;;;5.22;;
52542;SDS011;38449;52.696;6.186;2023-06-24T12:40:05;5.40;;;4.50;;
52542;SDS011;38449;52.696;6.186;2023-06-24T12:42:31;5.47;;;4.35;;
52542;SDS011;38449;52.696;6.186;2023-06-24T12:44:58;7.20;;;4.80;;
52542;SDS011;38449;52.696;6.186;2023-06-24T12:47:26;5.53;;;4.90;;
52542;SDS011;38449;52.696;6.186;2023-06-24T12:49:52;6.55;;;4.50;;
52542;SDS011;38449;52.696;6.186;2023-06-24T12:52:18;7.22;;;4.68;;
52542;SDS011;38449;52.696;6.186;2023-06-24T12:54:45;6.40;;;4.60;;
52542;SDS011;38449;52.696;6.186;2023-06-24T12:57:16;6.10;;;4.28;;
52542;SDS011;38449;52.696;6.186;2023-06-24T12:59:43;5.97;;;3.70;;
52542;SDS011;38449;52.696;6.186;2023-06-24T13:02:09;5.35;;;4.30;;
52542;SDS011;38449;52.696;6.186;2023-06-24T13:04:35;8.48;;;4.47;;
52542;SDS011;38449;52.696;6.186;2023-06-24T13:07:02;4.78;;;3.83;;
52542;SDS011;38449;52.696;6.186;2023-06-24T13:09:30;5.20;;;4.20;;
52542;SDS011;38449;52.696;6.186;2023-06-24T13:11:56;6.25;;;4.35;;
52542;SDS011;38449;52.696;6.186;2023-06-24T13:14:24;5.38;;;4.20;;
52542;SDS011;38449;52.696;6.186;2023-06-24T13:16:52;4.53;;;3.85;;
52542;SDS011;38449;52.696;6.186;2023-06-24T13:19:19;5.20;;;3.88;;
52542;SDS011;38449;52.696;6.186;2023-06-24T13:21:45;5.68;;;4.38;;
52542;SDS011;38449;52.696;6.186;2023-06-24T13:24:12;6.38;;;4.03;;
52542;SDS011;38449;52.696;6.186;2023-06-24T13:26:38;5.03;;;4.35;;
52542;SDS011;38449;52.696;6.186;2023-06-24T13:29:05;5.13;;;4.00;;
52542;SDS011;38449;52.696;6.186;2023-06-24T13:31:33;4.85;;;4.20;;
52542;SDS011;38449;52.696;6.186;2023-06-24T13:33:59;6.15;;;4.18;;
52542;SDS011;38449;52.696;6.186;2023-06-24T13:36:29;5.25;;;4.13;;
52542;SDS011;38449;52.696;6.186;2023-06-24T13:38:58;7.00;;;4.40;;
52542;SDS011;38449;52.696;6.186;2023-06-24T13:41:24;6.35;;;4.00;;
52542;SDS011;38449;52.696;6.186;2023-06-24T13:43:55;4.95;;;3.97;;
52542;SDS011;38449;52.696;6.186;2023-06-24T13:46:22;4.90;;;4.30;;
52542;SDS011;38449;52.696;6.186;2023-06-24T13:48:49;5.40;;;4.25;;
52542;SDS011;38449;52.696;6.186;2023-06-24T13:51:16;6.40;;;4.15;;
52542;SDS011;38449;52.696;6.186;2023-06-24T13:53:43;6.35;;;4.63;;
52542;SDS011;38449;52.696;6.186;2023-06-24T13:56:09;6.20;;;4.45;;
52542;SDS011;38449;52.696;6.186;2023-06-24T13:58:36;4.97;;;4.10;;
52542;SDS011;38449;52.696;6.186;2023-06-24T14:01:02;4.90;;;4.18;;
52542;SDS011;38449;52.696;6.186;2023-06-24T14:03:28;9.18;;;4.35;;
52542;SDS011;38449;52.696;6.186;2023-06-24T14:05:55;5.10;;;4.32;;
52542;SDS011;38449;52.696;6.186;2023-06-24T14:08:22;5.03;;;4.10;;
52542;SDS011;38449;52.696;6.186;2023-06-24T14:10:49;4.95;;;4.25;;
52542;SDS011;38449;52.696;6.186;2023-06-24T14:13:15;5.97;;;4.20;;
52542;SDS011;38449;52.696;6.186;2023-06-24T14:15:41;6.50;;;4.50;;
52542;SDS011;38449;52.696;6.186;2023-06-24T14:18:07;5.85;;;4.43;;
52542;SDS011;38449;52.696;6.186;2023-06-24T14:20:34;5.20;;;4.60;;
52542;SDS011;38449;52.696;6.186;2023-06-24T14:23:00;6.03;;;4.10;;
52542;SDS011;38449;52.696;6.186;2023-06-24T14:25:26;5.25;;;4.10;;
52542;SDS011;38449;52.696;6.186;2023-06-24T14:27:53;4.82;;;4.32;;
52542;SDS011;38449;52.696;6.186;2023-06-24T14:30:19;5.82;;;4.50;;
52542;SDS011;38449;52.696;6.186;2023-06-24T14:32:45;4.90;;;4.35;;
52542;SDS011;38449;52.696;6.186;2023-06-24T14:35:12;5.75;;;4.93;;
52542;SDS011;38449;52.696;6.186;2023-06-24T14:37:38;5.85;;;4.22;;
52542;SDS011;38449;52.696;6.186;2023-06-24T14:40:05;6.13;;;4.78;;
52542;SDS011;38449;52.696;6.186;2023-06-24T14:42:31;5.75;;;5.15;;
52542;SDS011;38449;52.696;6.186;2023-06-24T14:44:58;5.78;;;4.72;;
52542;SDS011;38449;52.696;6.186;2023-06-24T14:47:24;5.55;;;4.93;;
52542;SDS011;38449;52.696;6.186;2023-06-24T14:49:50;6.47;;;4.20;;
52542;SDS011;38449;52.696;6.186;2023-06-24T14:52:17;5.85;;;4.47;;
52542;SDS011;38449;52.696;6.186;2023-06-24T14:54:43;6.25;;;4.90;;
52542;SDS011;38449;52.696;6.186;2023-06-24T14:57:09;6.80;;;5.05;;
52542;SDS011;38449;52.696;6.186;2023-06-24T14:59:35;7.03;;;4.68;;
52542;SDS011;38449;52.696;6.186;2023-06-24T15:02:02;6.07;;;5.18;;
52542;SDS011;38449;52.696;6.186;2023-06-24T15:04:28;7.95;;;5.20;;
52542;SDS011;38449;52.696;6.186;2023-06-24T15:06:54;5.10;;;4.53;;
52542;SDS011;38449;52.696;6.186;2023-06-24T15:09:21;6.10;;;4.60;;
52542;SDS011;38449;52.696;6.186;2023-06-24T15:11:48;5.32;;;4.72;;